Portada
METAR-TAF:

METAR-TAF

Aeropuertos :

Mécheria, Argelia

latitud: 34-56N, longitud: 000-26W, altitud: 1149 m

Observación

El informe se hizo hace 17 minutos, a las 08:00 UTC
Viento 14 kt del norte
Temperatura 10°C
Humedad 76%
Presión 1027 hPa
Visibilidad 10 km o más
sin nubes por debajo de 1500 m y sin presencia de cumulonimbus.

METAR: DAAY 280800Z 01014KT CAVOK 10/06 Q1027

Hora: 09:17 (08:17 UTC)

Pronóstico

El informe se hizo hace 3 horas y 17 minutos, a las 05:00 UTC
Pronóstico válido del 28 a las 06 UTC al 28 a las 15 UTC
Viento 15 kt del norte
Visibilidad 10 km o más
sin nubes por debajo de 1500 m y sin presencia de cumulonimbus.

TAF: DAAY 280500Z 2806/2815 36015KT CAVOK

Observaciones y pronósticos meteorológicos de más de 4000 aeropuertos (mensajes METAR y TAF).

Los puntos amarillos y rojos representan las estaciones disponibles.

Ponga el ratón en el punto deseado para ver el nombre de la estación.

Haga clic para ver las observaciones y los pronósticos meteorológicos.

Para cambiar el mapa : haga clic en los botones verdes con una cruz de color negro para hacer un zoom, en el botón verde con un guión para alejar o en las flechas verdes para mapas adyacentes.


METAR-TAF: